sensor_id;sensor_type;location;lat;lon;timestamp;temperature;humidity
11744;DHT22;5929;51.906;7.674;2023-03-01T00:01:29;-1.30;99.90
11744;DHT22;5929;51.906;7.674;2023-03-01T00:03:57;-1.20;99.90
11744;DHT22;5929;51.906;7.674;2023-03-01T00:06:25;-1.10;99.90
11744;DHT22;5929;51.906;7.674;2023-03-01T00:08:53;-1.20;99.90
11744;DHT22;5929;51.906;7.674;2023-03-01T00:11:24;-1.30;99.90
11744;DHT22;5929;51.906;7.674;2023-03-01T00:13:52;-1.30;99.90
11744;DHT22;5929;51.906;7.674;2023-03-01T00:16:21;-1.40;99.90
11744;DHT22;5929;51.906;7.674;2023-03-01T00:18:50;-1.40;99.90
11744;DHT22;5929;51.906;7.674;2023-03-01T00:21:17;-1.50;99.90
11744;DHT22;5929;51.906;7.674;2023-03-01T00:23:46;-1.50;99.90
11744;DHT22;5929;51.906;7.674;2023-03-01T00:26:15;-1.50;99.90
11744;DHT22;5929;51.906;7.674;2023-03-01T00:28:43;-1.60;99.90
11744;DHT22;5929;51.906;7.674;2023-03-01T00:31:12;-1.60;99.90
11744;DHT22;5929;51.906;7.674;2023-03-01T00:33:39;-1.60;99.90
11744;DHT22;5929;51.906;7.674;2023-03-01T00:36:09;-1.50;99.90
11744;DHT22;5929;51.906;7.674;2023-03-01T00:38:37;-1.30;99.90
11744;DHT22;5929;51.906;7.674;2023-03-01T00:41:05;-1.40;99.90
11744;DHT22;5929;51.906;7.674;2023-03-01T00:43:32;-1.50;99.90
11744;DHT22;5929;51.906;7.674;2023-03-01T00:46:02;-1.50;99.90
11744;DHT22;5929;51.906;7.674;2023-03-01T00:48:29;-1.50;99.90
11744;DHT22;5929;51.906;7.674;2023-03-01T00:50:56;-1.60;99.90
11744;DHT22;5929;51.906;7.674;2023-03-01T00:53:24;-1.60;99.90
11744;DHT22;5929;51.906;7.674;2023-03-01T00:55:51;-1.60;99.90
11744;DHT22;5929;51.906;7.674;2023-03-01T00:58:18;-1.70;99.90
11744;DHT22;5929;51.906;7.674;2023-03-01T01:00:44;-1.80;99.90
11744;DHT22;5929;51.906;7.674;2023-03-01T01:03:11;-1.90;99.90
11744;DHT22;5929;51.906;7.674;2023-03-01T01:05:38;-1.90;99.90
11744;DHT22;5929;51.906;7.674;2023-03-01T01:08:07;-2.00;99.90
11744;DHT22;5929;51.906;7.674;2023-03-01T01:10:35;-2.00;99.90
11744;DHT22;5929;51.906;7.674;2023-03-01T01:13:03;-2.00;99.90
11744;DHT22;5929;51.906;7.674;2023-03-01T01:15:39;-2.10;99.90
11744;DHT22;5929;51.906;7.674;2023-03-01T01:18:06;-2.20;99.90
11744;DHT22;5929;51.906;7.674;2023-03-01T01:20:35;-2.20;99.90
11744;DHT22;5929;51.906;7.674;2023-03-01T01:23:02;-2.20;99.90
11744;DHT22;5929;51.906;7.674;2023-03-01T01:25:29;-2.10;99.90
11744;DHT22;5929;51.906;7.674;2023-03-01T01:27:57;-2.10;99.90
11744;DHT22;5929;51.906;7.674;2023-03-01T01:30:24;-2.10;99.90
11744;DHT22;5929;51.906;7.674;2023-03-01T01:32:51;-2.10;99.90
11744;DHT22;5929;51.906;7.674;2023-03-01T01:35:20;-2.00;99.90
11744;DHT22;5929;51.906;7.674;2023-03-01T01:37:47;-2.00;99.90
11744;DHT22;5929;51.906;7.674;2023-03-01T01:40:13;-2.00;99.90
11744;DHT22;5929;51.906;7.674;2023-03-01T01:42:40;-2.00;99.90
11744;DHT22;5929;51.906;7.674;2023-03-01T01:45:29;-2.10;99.90
11744;DHT22;5929;51.906;7.674;2023-03-01T01:48:00;-2.10;99.90
11744;DHT22;5929;51.906;7.674;2023-03-01T01:50:30;-2.20;99.90
11744;DHT22;5929;51.906;7.674;2023-03-01T01:53:05;-2.20;99.90
11744;DHT22;5929;51.906;7.674;2023-03-01T01:55:33;-2.20;99.90
11744;DHT22;5929;51.906;7.674;2023-03-01T01:58:03;-2.20;99.90
11744;DHT22;5929;51.906;7.674;2023-03-01T02:00:32;-2.20;99.90
11744;DHT22;5929;51.906;7.674;2023-03-01T02:03:02;-2.20;99.90
11744;DHT22;5929;51.906;7.674;2023-03-01T02:05:36;-2.20;99.90
11744;DHT22;5929;51.906;7.674;2023-03-01T02:08:05;-2.10;99.90
11744;DHT22;5929;51.906;7.674;2023-03-01T02:10:33;-2.20;99.90
11744;DHT22;5929;51.906;7.674;2023-03-01T02:13:01;-2.20;99.90
11744;DHT22;5929;51.906;7.674;2023-03-01T02:15:33;-2.20;99.90
11744;DHT22;5929;51.906;7.674;2023-03-01T02:18:01;-2.20;99.90
11744;DHT22;5929;51.906;7.674;2023-03-01T02:20:34;-2.20;99.90
11744;DHT22;5929;51.906;7.674;2023-03-01T02:23:02;-2.20;99.90
11744;DHT22;5929;51.906;7.674;2023-03-01T02:25:37;-2.20;99.90
11744;DHT22;5929;51.906;7.674;2023-03-01T02:28:18;-2.30;99.90
11744;DHT22;5929;51.906;7.674;2023-03-01T02:30:47;-2.30;99.90
11744;DHT22;5929;51.906;7.674;2023-03-01T02:33:30;-2.30;99.90
11744;DHT22;5929;51.906;7.674;2023-03-01T02:35:59;-2.30;99.90
11744;DHT22;5929;51.906;7.674;2023-03-01T02:38:28;-2.30;99.90
11744;DHT22;5929;51.906;7.674;2023-03-01T02:40:57;-2.30;99.90
11744;DHT22;5929;51.906;7.674;2023-03-01T02:43:29;-2.30;99.90
11744;DHT22;5929;51.906;7.674;2023-03-01T02:45:59;-2.30;99.90
11744;DHT22;5929;51.906;7.674;2023-03-01T02:48:42;-2.30;99.90
11744;DHT22;5929;51.906;7.674;2023-03-01T02:51:37;-2.30;99.90
11744;DHT22;5929;51.906;7.674;2023-03-01T02:54:12;-2.30;99.90
11744;DHT22;5929;51.906;7.674;2023-03-01T02:56:43;-2.40;99.90
11744;DHT22;5929;51.906;7.674;2023-03-01T03:01:42;-2.50;99.90
11744;DHT22;5929;51.906;7.674;2023-03-01T03:04:12;-2.50;99.90
11744;DHT22;5929;51.906;7.674;2023-03-01T03:06:42;-2.50;99.90
11744;DHT22;5929;51.906;7.674;2023-03-01T03:09:09;-2.60;99.90
11744;DHT22;5929;51.906;7.674;2023-03-01T03:11:36;-2.60;99.90
11744;DHT22;5929;51.906;7.674;2023-03-01T03:14:05;-2.60;99.90
11744;DHT22;5929;51.906;7.674;2023-03-01T03:16:40;-2.60;99.90
11744;DHT22;5929;51.906;7.674;2023-03-01T03:19:07;-2.60;99.90
11744;DHT22;5929;51.906;7.674;2023-03-01T03:21:34;-2.60;99.90
11744;DHT22;5929;51.906;7.674;2023-03-01T03:24:01;-2.70;99.90
11744;DHT22;5929;51.906;7.674;2023-03-01T03:26:28;-2.70;99.90
11744;DHT22;5929;51.906;7.674;2023-03-01T03:28:57;-2.70;99.90
11744;DHT22;5929;51.906;7.674;2023-03-01T03:31:24;-2.70;99.90
11744;DHT22;5929;51.906;7.674;2023-03-01T03:33:53;-2.70;99.90
11744;DHT22;5929;51.906;7.674;2023-03-01T03:36:22;-2.80;99.90
11744;DHT22;5929;51.906;7.674;2023-03-01T03:38:49;-2.70;99.90
11744;DHT22;5929;51.906;7.674;2023-03-01T03:41:16;-2.70;99.90
11744;DHT22;5929;51.906;7.674;2023-03-01T03:43:43;-2.70;99.90
11744;DHT22;5929;51.906;7.674;2023-03-01T03:46:11;-2.80;99.90
11744;DHT22;5929;51.906;7.674;2023-03-01T03:48:40;-2.70;99.90
11744;DHT22;5929;51.906;7.674;2023-03-01T03:51:11;-2.80;99.90
11744;DHT22;5929;51.906;7.674;2023-03-01T03:53:39;-2.70;99.90
11744;DHT22;5929;51.906;7.674;2023-03-01T03:56:06;-2.80;99.90
11744;DHT22;5929;51.906;7.674;2023-03-01T03:58:34;-2.80;99.90
11744;DHT22;5929;51.906;7.674;2023-03-01T04:01:01;-2.80;99.90
11744;DHT22;5929;51.906;7.674;2023-03-01T04:03:29;-2.80;99.90
11744;DHT22;5929;51.906;7.674;2023-03-01T04:05:58;-2.80;99.90
11744;DHT22;5929;51.906;7.674;2023-03-01T04:08:27;-2.80;99.90
11744;DHT22;5929;51.906;7.674;2023-03-01T04:10:59;-2.80;99.90
11744;DHT22;5929;51.906;7.674;2023-03-01T04:13:49;-2.80;99.90
11744;DHT22;5929;51.906;7.674;2023-03-01T04:16:16;-2.80;99.90
11744;DHT22;5929;51.906;7.674;2023-03-01T04:18:44;-2.80;99.90
11744;DHT22;5929;51.906;7.674;2023-03-01T04:21:11;-2.80;99.90
11744;DHT22;5929;51.906;7.674;2023-03-01T04:23:40;-2.80;99.90
11744;DHT22;5929;51.906;7.674;2023-03-01T04:26:07;-2.80;99.90
11744;DHT22;5929;51.906;7.674;2023-03-01T04:28:36;-2.90;99.90
11744;DHT22;5929;51.906;7.674;2023-03-01T04:31:07;-2.90;99.90
11744;DHT22;5929;51.906;7.674;2023-03-01T04:33:39;-2.80;99.90
11744;DHT22;5929;51.906;7.674;2023-03-01T04:36:08;-2.90;99.90
11744;DHT22;5929;51.906;7.674;2023-03-01T04:38:36;-2.90;99.90
11744;DHT22;5929;51.906;7.674;2023-03-01T04:41:05;-2.90;99.90
11744;DHT22;5929;51.906;7.674;2023-03-01T04:43:34;-2.90;99.90
11744;DHT22;5929;51.906;7.674;2023-03-01T04:46:02;-2.80;99.90
11744;DHT22;5929;51.906;7.674;2023-03-01T04:48:30;-2.80;99.90
11744;DHT22;5929;51.906;7.674;2023-03-01T04:50:58;-2.80;99.90
11744;DHT22;5929;51.906;7.674;2023-03-01T04:53:25;-2.80;99.90
11744;DHT22;5929;51.906;7.674;2023-03-01T04:55:54;-2.90;99.90
11744;DHT22;5929;51.906;7.674;2023-03-01T04:58:22;-2.90;99.90
11744;DHT22;5929;51.906;7.674;2023-03-01T05:00:49;-2.90;99.90
11744;DHT22;5929;51.906;7.674;2023-03-01T05:03:16;-2.90;99.90
11744;DHT22;5929;51.906;7.674;2023-03-01T05:05:45;-2.90;99.90
11744;DHT22;5929;51.906;7.674;2023-03-01T05:08:13;-2.90;99.90
11744;DHT22;5929;51.906;7.674;2023-03-01T05:10:44;-2.90;99.90
11744;DHT22;5929;51.906;7.674;2023-03-01T05:13:12;-2.90;99.90
11744;DHT22;5929;51.906;7.674;2023-03-01T05:15:44;-3.00;99.90
11744;DHT22;5929;51.906;7.674;2023-03-01T05:18:10;-3.00;99.90
11744;DHT22;5929;51.906;7.674;2023-03-01T05:20:38;-2.90;99.90
11744;DHT22;5929;51.906;7.674;2023-03-01T05:23:05;-2.90;99.90
11744;DHT22;5929;51.906;7.674;2023-03-01T05:25:32;-3.00;99.90
11744;DHT22;5929;51.906;7.674;2023-03-01T05:28:00;-3.00;99.90
11744;DHT22;5929;51.906;7.674;2023-03-01T05:30:30;-3.00;99.90
11744;DHT22;5929;51.906;7.674;2023-03-01T05:32:58;-3.00;99.90
11744;DHT22;5929;51.906;7.674;2023-03-01T05:35:25;-3.10;99.90
11744;DHT22;5929;51.906;7.674;2023-03-01T05:37:52;-3.10;99.90
11744;DHT22;5929;51.906;7.674;2023-03-01T05:40:23;-3.10;99.90
11744;DHT22;5929;51.906;7.674;2023-03-01T05:42:52;-3.10;99.90
11744;DHT22;5929;51.906;7.674;2023-03-01T05:45:20;-3.10;99.90
11744;DHT22;5929;51.906;7.674;2023-03-01T05:47:48;-3.10;99.90
11744;DHT22;5929;51.906;7.674;2023-03-01T05:50:19;-3.10;99.90
11744;DHT22;5929;51.906;7.674;2023-03-01T05:52:47;-3.10;99.90
11744;DHT22;5929;51.906;7.674;2023-03-01T05:55:14;-3.10;99.90
11744;DHT22;5929;51.906;7.674;2023-03-01T05:57:42;-3.10;99.90
11744;DHT22;5929;51.906;7.674;2023-03-01T06:00:10;-3.20;99.90
11744;DHT22;5929;51.906;7.674;2023-03-01T06:02:37;-3.20;99.90
11744;DHT22;5929;51.906;7.674;2023-03-01T06:05:05;-3.20;99.90
11744;DHT22;5929;51.906;7.674;2023-03-01T06:07:33;-3.20;99.90
11744;DHT22;5929;51.906;7.674;2023-03-01T06:10:00;-3.30;99.90
11744;DHT22;5929;51.906;7.674;2023-03-01T06:12:30;-3.30;99.90
11744;DHT22;5929;51.906;7.674;2023-03-01T06:15:00;-3.30;99.90
11744;DHT22;5929;51.906;7.674;2023-03-01T06:17:29;-3.20;99.90
11744;DHT22;5929;51.906;7.674;2023-03-01T06:19:56;-3.20;99.90
11744;DHT22;5929;51.906;7.674;2023-03-01T06:22:23;-3.20;99.90
11744;DHT22;5929;51.906;7.674;2023-03-01T06:24:51;-3.20;99.90
11744;DHT22;5929;51.906;7.674;2023-03-01T06:27:18;-3.20;99.90
11744;DHT22;5929;51.906;7.674;2023-03-01T06:29:47;-3.30;99.90
11744;DHT22;5929;51.906;7.674;2023-03-01T06:32:15;-3.30;99.90
11744;DHT22;5929;51.906;7.674;2023-03-01T06:34:41;-3.20;99.90
11744;DHT22;5929;51.906;7.674;2023-03-01T06:37:08;-3.20;99.90
11744;DHT22;5929;51.906;7.674;2023-03-01T06:39:35;-3.20;99.90
11744;DHT22;5929;51.906;7.674;2023-03-01T06:42:07;-3.10;99.90
11744;DHT22;5929;51.906;7.674;2023-03-01T06:44:35;-3.00;99.90
11744;DHT22;5929;51.906;7.674;2023-03-01T06:47:02;-3.00;99.90
11744;DHT22;5929;51.906;7.674;2023-03-01T06:49:30;-3.00;99.90
11744;DHT22;5929;51.906;7.674;2023-03-01T06:51:57;-3.00;99.90
11744;DHT22;5929;51.906;7.674;2023-03-01T06:54:24;-3.00;99.90
11744;DHT22;5929;51.906;7.674;2023-03-01T06:56:51;-3.00;99.90
11744;DHT22;5929;51.906;7.674;2023-03-01T06:59:19;-3.00;99.90
11744;DHT22;5929;51.906;7.674;2023-03-01T07:01:46;-2.90;99.90
11744;DHT22;5929;51.906;7.674;2023-03-01T07:04:13;-2.80;99.90
11744;DHT22;5929;51.906;7.674;2023-03-01T07:06:40;-2.80;99.90
11744;DHT22;5929;51.906;7.674;2023-03-01T07:09:07;-2.80;99.90
11744;DHT22;5929;51.906;7.674;2023-03-01T07:11:34;-2.80;99.90
11744;DHT22;5929;51.906;7.674;2023-03-01T07:14:00;-2.70;99.90
11744;DHT22;5929;51.906;7.674;2023-03-01T07:16:29;-2.70;99.90
11744;DHT22;5929;51.906;7.674;2023-03-01T07:18:55;-2.60;99.90
11744;DHT22;5929;51.906;7.674;2023-03-01T07:21:22;-2.60;99.90
11744;DHT22;5929;51.906;7.674;2023-03-01T07:23:49;-2.50;99.90
11744;DHT22;5929;51.906;7.674;2023-03-01T07:26:16;-2.40;99.90
11744;DHT22;5929;51.906;7.674;2023-03-01T07:28:43;-2.50;99.90
11744;DHT22;5929;51.906;7.674;2023-03-01T07:31:10;-2.30;99.90
11744;DHT22;5929;51.906;7.674;2023-03-01T07:33:38;-2.20;99.90
11744;DHT22;5929;51.906;7.674;2023-03-01T07:36:06;-2.20;99.90
11744;DHT22;5929;51.906;7.674;2023-03-01T07:38:33;-2.10;99.90
11744;DHT22;5929;51.906;7.674;2023-03-01T07:41:02;-2.00;99.90
11744;DHT22;5929;51.906;7.674;2023-03-01T07:43:31;-2.00;99.90
11744;DHT22;5929;51.906;7.674;2023-03-01T07:45:59;-1.90;99.90
11744;DHT22;5929;51.906;7.674;2023-03-01T07:48:26;-1.80;99.90
11744;DHT22;5929;51.906;7.674;2023-03-01T07:50:54;-1.70;99.90
11744;DHT22;5929;51.906;7.674;2023-03-01T07:53:24;-1.50;99.90
11744;DHT22;5929;51.906;7.674;2023-03-01T07:56:00;-1.40;99.90
11744;DHT22;5929;51.906;7.674;2023-03-01T07:58:27;-1.40;99.90
11744;DHT22;5929;51.906;7.674;2023-03-01T08:01:01;-1.30;99.90
11744;DHT22;5929;51.906;7.674;2023-03-01T08:03:27;-1.10;99.90
11744;DHT22;5929;51.906;7.674;2023-03-01T08:05:56;-1.10;99.90
11744;DHT22;5929;51.906;7.674;2023-03-01T08:08:22;-1.10;99.90
11744;DHT22;5929;51.906;7.674;2023-03-01T08:10:49;-1.00;99.90
11744;DHT22;5929;51.906;7.674;2023-03-01T08:13:16;-0.90;99.90
11744;DHT22;5929;51.906;7.674;2023-03-01T08:15:47;-0.90;99.90
11744;DHT22;5929;51.906;7.674;2023-03-01T08:18:14;-0.70;99.90
11744;DHT22;5929;51.906;7.674;2023-03-01T08:20:41;-0.60;99.90
11744;DHT22;5929;51.906;7.674;2023-03-01T08:23:10;-0.60;99.90
11744;DHT22;5929;51.906;7.674;2023-03-01T08:25:37;-0.50;99.90
11744;DHT22;5929;51.906;7.674;2023-03-01T08:28:04;-0.50;99.90
11744;DHT22;5929;51.906;7.674;2023-03-01T08:30:31;-0.40;99.90
11744;DHT22;5929;51.906;7.674;2023-03-01T08:32:58;-0.30;99.90
11744;DHT22;5929;51.906;7.674;2023-03-01T08:35:27;-0.20;99.90
11744;DHT22;5929;51.906;7.674;2023-03-01T08:37:54;-0.20;99.90
11744;DHT22;5929;51.906;7.674;2023-03-01T08:40:22;-0.20;99.90
11744;DHT22;5929;51.906;7.674;2023-03-01T08:42:49;-0.10;99.90
11744;DHT22;5929;51.906;7.674;2023-03-01T08:45:16;0.00;99.90
11744;DHT22;5929;51.906;7.674;2023-03-01T08:47:44;0.10;99.90
11744;DHT22;5929;51.906;7.674;2023-03-01T08:50:11;0.20;99.90
11744;DHT22;5929;51.906;7.674;2023-03-01T08:52:38;0.20;99.90
11744;DHT22;5929;51.906;7.674;2023-03-01T08:55:06;0.20;99.90
11744;DHT22;5929;51.906;7.674;2023-03-01T08:57:34;0.30;99.90
11744;DHT22;5929;51.906;7.674;2023-03-01T09:00:01;0.40;99.90
11744;DHT22;5929;51.906;7.674;2023-03-01T09:02:28;0.60;99.90
11744;DHT22;5929;51.906;7.674;2023-03-01T09:04:55;0.70;99.90
11744;DHT22;5929;51.906;7.674;2023-03-01T09:07:22;0.80;99.90
11744;DHT22;5929;51.906;7.674;2023-03-01T09:09:53;0.90;99.90
11744;DHT22;5929;51.906;7.674;2023-03-01T09:12:21;1.10;99.90
11744;DHT22;5929;51.906;7.674;2023-03-01T09:14:49;1.20;99.40
11744;DHT22;5929;51.906;7.674;2023-03-01T09:17:16;1.40;99.10
11744;DHT22;5929;51.906;7.674;2023-03-01T09:19:42;1.50;98.90
11744;DHT22;5929;51.906;7.674;2023-03-01T09:22:09;1.60;98.70
11744;DHT22;5929;51.906;7.674;2023-03-01T09:24:36;1.70;98.20
11744;DHT22;5929;51.906;7.674;2023-03-01T09:27:03;1.80;97.30
11744;DHT22;5929;51.906;7.674;2023-03-01T09:29:34;1.90;97.50
11744;DHT22;5929;51.906;7.674;2023-03-01T09:32:03;2.10;96.50
11744;DHT22;5929;51.906;7.674;2023-03-01T09:34:29;2.10;96.90
11744;DHT22;5929;51.906;7.674;2023-03-01T09:36:57;2.20;96.60
11744;DHT22;5929;51.906;7.674;2023-03-01T09:39:25;2.20;96.60
11744;DHT22;5929;51.906;7.674;2023-03-01T09:42:00;2.30;96.00
11744;DHT22;5929;51.906;7.674;2023-03-01T09:44:32;2.40;96.30
11744;DHT22;5929;51.906;7.674;2023-03-01T09:47:01;2.40;96.00
11744;DHT22;5929;51.906;7.674;2023-03-01T09:49:34;2.50;95.90
11744;DHT22;5929;51.906;7.674;2023-03-01T09:52:07;2.50;95.40
11744;DHT22;5929;51.906;7.674;2023-03-01T09:54:38;2.60;95.20
11744;DHT22;5929;51.906;7.674;2023-03-01T09:57:13;2.70;94.70
11744;DHT22;5929;51.906;7.674;2023-03-01T09:59:52;2.80;94.20
11744;DHT22;5929;51.906;7.674;2023-03-01T10:02:24;2.80;93.90
11744;DHT22;5929;51.906;7.674;2023-03-01T10:04:58;3.00;94.20
11744;DHT22;5929;51.906;7.674;2023-03-01T10:07:34;3.10;93.30
11744;DHT22;5929;51.906;7.674;2023-03-01T10:10:07;3.10;92.90
11744;DHT22;5929;51.906;7.674;2023-03-01T10:12:37;3.30;92.50
11744;DHT22;5929;51.906;7.674;2023-03-01T10:15:10;3.30;92.20
11744;DHT22;5929;51.906;7.674;2023-03-01T10:17:46;3.30;92.30
11744;DHT22;5929;51.906;7.674;2023-03-01T10:20:19;3.40;92.60
11744;DHT22;5929;51.906;7.674;2023-03-01T10:22:47;3.50;92.30
11744;DHT22;5929;51.906;7.674;2023-03-01T10:25:24;3.60;91.50
11744;DHT22;5929;51.906;7.674;2023-03-01T10:28:02;3.60;91.80
11744;DHT22;5929;51.906;7.674;2023-03-01T10:30:35;3.80;91.60
11744;DHT22;5929;51.906;7.674;2023-03-01T10:33:07;3.90;91.40
11744;DHT22;5929;51.906;7.674;2023-03-01T10:35:42;4.00;91.50
11744;DHT22;5929;51.906;7.674;2023-03-01T10:38:11;4.00;91.30
11744;DHT22;5929;51.906;7.674;2023-03-01T10:40:50;4.10;91.00
11744;DHT22;5929;51.906;7.674;2023-03-01T10:43:20;4.10;90.30
11744;DHT22;5929;51.906;7.674;2023-03-01T10:45:48;4.30;90.50
11744;DHT22;5929;51.906;7.674;2023-03-01T10:48:17;4.40;90.40
11744;DHT22;5929;51.906;7.674;2023-03-01T10:50:50;4.50;90.40
11744;DHT22;5929;51.906;7.674;2023-03-01T10:53:26;4.70;90.60
11744;DHT22;5929;51.906;7.674;2023-03-01T10:56:00;4.80;89.20
11744;DHT22;5929;51.906;7.674;2023-03-01T10:58:28;4.90;89.80
11744;DHT22;5929;51.906;7.674;2023-03-01T11:00:57;5.00;89.00
11744;DHT22;5929;51.906;7.674;2023-03-01T11:03:26;5.20;88.40
11744;DHT22;5929;51.906;7.674;2023-03-01T11:06:00;5.40;87.80
11744;DHT22;5929;51.906;7.674;2023-03-01T11:08:36;5.50;87.80
11744;DHT22;5929;51.906;7.674;2023-03-01T11:11:22;5.90;86.60
11744;DHT22;5929;51.906;7.674;2023-03-01T11:13:53;6.40;84.80
11744;DHT22;5929;51.906;7.674;2023-03-01T11:16:32;7.60;83.50
11744;DHT22;5929;51.906;7.674;2023-03-01T11:19:12;8.70;79.50
11744;DHT22;5929;51.906;7.674;2023-03-01T11:21:44;9.20;77.70
11744;DHT22;5929;51.906;7.674;2023-03-01T11:24:16;9.80;73.40
11744;DHT22;5929;51.906;7.674;2023-03-01T11:26:47;9.80;72.60
11744;DHT22;5929;51.906;7.674;2023-03-01T11:29:26;9.70;73.60
11744;DHT22;5929;51.906;7.674;2023-03-01T11:31:55;10.20;69.20
11744;DHT22;5929;51.906;7.674;2023-03-01T11:34:32;10.00;69.80
11744;DHT22;5929;51.906;7.674;2023-03-01T11:37:07;9.90;71.30
11744;DHT22;5929;51.906;7.674;2023-03-01T11:39:41;9.70;68.70
11744;DHT22;5929;51.906;7.674;2023-03-01T11:42:14;10.10;67.80
11744;DHT22;5929;51.906;7.674;2023-03-01T11:44:48;10.70;68.60
11744;DHT22;5929;51.906;7.674;2023-03-01T11:47:30;10.90;65.20
11744;DHT22;5929;51.906;7.674;2023-03-01T11:50:13;9.80;68.20
11744;DHT22;5929;51.906;7.674;2023-03-01T11:52:50;9.60;69.10
11744;DHT22;5929;51.906;7.674;2023-03-01T11:55:29;9.80;70.40
11744;DHT22;5929;51.906;7.674;2023-03-01T11:58:19;9.80;68.80
11744;DHT22;5929;51.906;7.674;2023-03-01T12:01:02;10.10;70.00
11744;DHT22;5929;51.906;7.674;2023-03-01T12:03:47;10.10;66.90
11744;DHT22;5929;51.906;7.674;2023-03-01T12:06:27;10.40;65.90
11744;DHT22;5929;51.906;7.674;2023-03-01T12:09:11;9.70;66.60
11744;DHT22;5929;51.906;7.674;2023-03-01T12:11:57;9.50;70.20
11744;DHT22;5929;51.906;7.674;2023-03-01T12:14:47;10.00;66.60
11744;DHT22;5929;51.906;7.674;2023-03-01T12:17:42;10.40;66.50
11744;DHT22;5929;51.906;7.674;2023-03-01T12:20:28;10.30;66.70
11744;DHT22;5929;51.906;7.674;2023-03-01T12:26:05;11.00;64.40
11744;DHT22;5929;51.906;7.674;2023-03-01T12:28:53;10.60;64.90
11744;DHT22;5929;51.906;7.674;2023-03-01T12:31:48;10.50;63.00
11744;DHT22;5929;51.906;7.674;2023-03-01T12:34:36;10.50;64.10
11744;DHT22;5929;51.906;7.674;2023-03-01T12:37:20;10.80;64.20
11744;DHT22;5929;51.906;7.674;2023-03-01T12:40:00;11.10;64.60
11744;DHT22;5929;51.906;7.674;2023-03-01T12:42:35;10.90;64.30
11744;DHT22;5929;51.906;7.674;2023-03-01T12:45:26;11.50;64.60
11744;DHT22;5929;51.906;7.674;2023-03-01T12:48:07;11.60;63.80
11744;DHT22;5929;51.906;7.674;2023-03-01T12:50:39;11.30;64.60
11744;DHT22;5929;51.906;7.674;2023-03-01T12:53:20;10.90;65.90
11744;DHT22;5929;51.906;7.674;2023-03-01T12:55:49;10.80;64.60
11744;DHT22;5929;51.906;7.674;2023-03-01T12:58:25;10.30;65.60
11744;DHT22;5929;51.906;7.674;2023-03-01T13:01:05;10.50;65.20
11744;DHT22;5929;51.906;7.674;2023-03-01T13:03:49;10.60;64.50
11744;DHT22;5929;51.906;7.674;2023-03-01T13:06:24;10.40;65.50
11744;DHT22;5929;51.906;7.674;2023-03-01T13:08:59;11.10;64.60
11744;DHT22;5929;51.906;7.674;2023-03-01T13:11:30;10.90;63.90
11744;DHT22;5929;51.906;7.674;2023-03-01T13:17:30;11.40;63.30
11744;DHT22;5929;51.906;7.674;2023-03-01T13:19:57;10.50;62.60
11744;DHT22;5929;51.906;7.674;2023-03-01T13:22:30;10.40;64.10
11744;DHT22;5929;51.906;7.674;2023-03-01T13:25:03;11.00;64.70
11744;DHT22;5929;51.906;7.674;2023-03-01T13:27:38;11.30;62.90
11744;DHT22;5929;51.906;7.674;2023-03-01T13:30:38;11.40;60.50
11744;DHT22;5929;51.906;7.674;2023-03-01T13:33:40;11.00;59.80
11744;DHT22;5929;51.906;7.674;2023-03-01T13:36:08;11.10;62.00
11744;DHT22;5929;51.906;7.674;2023-03-01T13:38:46;10.40;60.80
11744;DHT22;5929;51.906;7.674;2023-03-01T13:41:14;10.30;63.40
11744;DHT22;5929;51.906;7.674;2023-03-01T13:43:42;10.30;63.80
11744;DHT22;5929;51.906;7.674;2023-03-01T13:46:14;10.40;64.30
11744;DHT22;5929;51.906;7.674;2023-03-01T13:48:45;10.70;61.80
11744;DHT22;5929;51.906;7.674;2023-03-01T13:51:12;9.80;63.10
11744;DHT22;5929;51.906;7.674;2023-03-01T13:53:43;9.90;65.40
11744;DHT22;5929;51.906;7.674;2023-03-01T13:56:13;9.90;65.30
11744;DHT22;5929;51.906;7.674;2023-03-01T13:58:49;9.30;64.50
11744;DHT22;5929;51.906;7.674;2023-03-01T14:01:26;9.40;66.60
11744;DHT22;5929;51.906;7.674;2023-03-01T14:03:54;9.20;65.20
11744;DHT22;5929;51.906;7.674;2023-03-01T14:06:26;9.30;64.10
11744;DHT22;5929;51.906;7.674;2023-03-01T14:09:02;9.00;63.40
11744;DHT22;5929;51.906;7.674;2023-03-01T14:12:06;8.90;64.50
11744;DHT22;5929;51.906;7.674;2023-03-01T14:14:48;8.50;67.00
11744;DHT22;5929;51.906;7.674;2023-03-01T14:17:38;8.10;67.60
11744;DHT22;5929;51.906;7.674;2023-03-01T14:20:14;8.10;68.00
11744;DHT22;5929;51.906;7.674;2023-03-01T14:22:43;8.20;68.30
11744;DHT22;5929;51.906;7.674;2023-03-01T14:25:25;8.20;68.10
11744;DHT22;5929;51.906;7.674;2023-03-01T14:27:58;8.10;68.60
11744;DHT22;5929;51.906;7.674;2023-03-01T14:30:27;8.00;69.10
11744;DHT22;5929;51.906;7.674;2023-03-01T14:32:58;7.90;68.80
11744;DHT22;5929;51.906;7.674;2023-03-01T14:35:28;7.80;68.90
11744;DHT22;5929;51.906;7.674;2023-03-01T14:37:55;7.60;68.10
11744;DHT22;5929;51.906;7.674;2023-03-01T14:40:24;7.60;69.20
11744;DHT22;5929;51.906;7.674;2023-03-01T14:42:53;7.70;69.20
11744;DHT22;5929;51.906;7.674;2023-03-01T14:45:20;7.80;69.80
11744;DHT22;5929;51.906;7.674;2023-03-01T14:47:47;7.80;70.20
11744;DHT22;5929;51.906;7.674;2023-03-01T14:50:24;7.70;70.40
11744;DHT22;5929;51.906;7.674;2023-03-01T14:52:55;7.90;70.10
11744;DHT22;5929;51.906;7.674;2023-03-01T14:55:27;7.90;68.90
11744;DHT22;5929;51.906;7.674;2023-03-01T14:57:56;8.10;68.30
11744;DHT22;5929;51.906;7.674;2023-03-01T15:00:25;8.20;67.00
11744;DHT22;5929;51.906;7.674;2023-03-01T15:02:54;8.10;67.70
11744;DHT22;5929;51.906;7.674;2023-03-01T15:05:25;8.10;69.20
11744;DHT22;5929;51.906;7.674;2023-03-01T15:07:56;8.30;67.90
11744;DHT22;5929;51.906;7.674;2023-03-01T15:10:25;8.40;66.90
11744;DHT22;5929;51.906;7.674;2023-03-01T15:12:52;8.60;66.70
11744;DHT22;5929;51.906;7.674;2023-03-01T15:15:36;8.60;66.70
11744;DHT22;5929;51.906;7.674;2023-03-01T15:18:11;8.90;67.00
11744;DHT22;5929;51.906;7.674;2023-03-01T15:20:39;9.00;66.10
11744;DHT22;5929;51.906;7.674;2023-03-01T15:23:18;9.20;64.80
11744;DHT22;5929;51.906;7.674;2023-03-01T15:25:46;9.50;65.00
11744;DHT22;5929;51.906;7.674;2023-03-01T15:28:22;9.90;66.40
11744;DHT22;5929;51.906;7.674;2023-03-01T15:30:55;9.90;64.20
11744;DHT22;5929;51.906;7.674;2023-03-01T15:33:32;10.10;62.60
11744;DHT22;5929;51.906;7.674;2023-03-01T15:36:00;9.70;64.70
11744;DHT22;5929;51.906;7.674;2023-03-01T15:38:51;9.70;64.70
11744;DHT22;5929;51.906;7.674;2023-03-01T15:41:24;9.20;64.40
11744;DHT22;5929;51.906;7.674;2023-03-01T15:43:52;8.70;64.80
11744;DHT22;5929;51.906;7.674;2023-03-01T15:46:27;8.40;65.30
11744;DHT22;5929;51.906;7.674;2023-03-01T15:48:56;8.10;66.20
11744;DHT22;5929;51.906;7.674;2023-03-01T15:51:32;7.90;65.90
11744;DHT22;5929;51.906;7.674;2023-03-01T15:54:04;7.50;66.60
11744;DHT22;5929;51.906;7.674;2023-03-01T15:56:31;7.30;67.20
11744;DHT22;5929;51.906;7.674;2023-03-01T15:59:00;7.10;68.40
11744;DHT22;5929;51.906;7.674;2023-03-01T16:01:28;7.10;68.90
11744;DHT22;5929;51.906;7.674;2023-03-01T16:03:55;7.00;69.60
11744;DHT22;5929;51.906;7.674;2023-03-01T16:06:23;6.90;69.30
11744;DHT22;5929;51.906;7.674;2023-03-01T16:08:50;6.80;71.10
11744;DHT22;5929;51.906;7.674;2023-03-01T16:11:20;6.70;70.70
11744;DHT22;5929;51.906;7.674;2023-03-01T16:13:47;6.70;71.30
11744;DHT22;5929;51.906;7.674;2023-03-01T16:16:16;6.50;70.90
11744;DHT22;5929;51.906;7.674;2023-03-01T16:18:44;6.50;71.50
11744;DHT22;5929;51.906;7.674;2023-03-01T16:21:18;6.40;71.40
11744;DHT22;5929;51.906;7.674;2023-03-01T16:23:46;6.30;72.00
11744;DHT22;5929;51.906;7.674;2023-03-01T16:26:13;6.30;71.80